createdAt,value
2023-05-17T00:00:46.293Z,10.27
2023-05-17T00:03:16.102Z,10.20
2023-05-17T00:05:44.579Z,10.27
2023-05-17T00:08:13.113Z,10.21
2023-05-17T00:10:44.412Z,10.17
2023-05-17T00:13:12.779Z,10.16
2023-05-17T00:15:41.211Z,10.15
2023-05-17T00:18:09.847Z,10.11
2023-05-17T00:20:39.656Z,10.07
2023-05-17T00:23:10.900Z,10.06
2023-05-17T00:25:41.365Z,10.03
2023-05-17T00:28:09.777Z,9.94
2023-05-17T00:30:38.256Z,9.97
2023-05-17T00:33:09.038Z,10.01
2023-05-17T00:35:37.409Z,9.94
2023-05-17T00:38:09.602Z,9.88
2023-05-17T00:40:37.971Z,9.83
2023-05-17T00:43:06.902Z,9.82
2023-05-17T00:45:35.357Z,9.88
2023-05-17T00:48:03.989Z,9.89
2023-05-17T00:50:33.002Z,9.79
2023-05-17T00:53:01.816Z,9.75
2023-05-17T00:55:31.784Z,9.74
2023-05-17T00:58:01.013Z,9.68
2023-05-17T01:00:29.718Z,9.59
2023-05-17T01:02:58.236Z,9.53
2023-05-17T01:05:28.781Z,9.50
2023-05-17T01:07:57.528Z,9.44
2023-05-17T01:10:30.126Z,9.44
2023-05-17T01:13:08.197Z,9.39
2023-05-17T01:15:42.509Z,9.39
2023-05-17T01:18:29.461Z,9.36
2023-05-17T01:21:01.326Z,9.34
2023-05-17T01:23:43.305Z,9.37
2023-05-17T01:26:16.096Z,9.41
2023-05-17T01:28:49.354Z,9.45
2023-05-17T01:31:19.731Z,9.46
2023-05-17T01:33:48.698Z,9.38
2023-05-17T01:36:17.210Z,9.34
2023-05-17T01:38:45.658Z,9.31
2023-05-17T01:41:17.683Z,9.30
2023-05-17T01:43:52.720Z,9.26
2023-05-17T01:46:27.938Z,9.21
2023-05-17T01:49:06.687Z,9.22
2023-05-17T01:51:41.011Z,9.23
2023-05-17T01:54:12.733Z,9.16
2023-05-17T01:56:44.479Z,9.20
2023-05-17T01:59:21.475Z,9.20
2023-05-17T02:01:51.740Z,9.19
2023-05-17T02:04:21.469Z,9.18
2023-05-17T02:06:49.863Z,9.10
2023-05-17T02:09:18.345Z,9.04
2023-05-17T02:11:46.638Z,9.08
2023-05-17T02:14:16.556Z,9.04
2023-05-17T02:16:44.992Z,9.09
2023-05-17T02:19:14.221Z,9.15
2023-05-17T02:21:42.679Z,9.16
2023-05-17T02:24:11.090Z,9.19
2023-05-17T02:26:42.876Z,9.18
2023-05-17T02:29:11.456Z,9.15
2023-05-17T02:31:41.194Z,9.17
2023-05-17T02:34:10.548Z,9.13
2023-05-17T02:36:40.412Z,9.11
2023-05-17T02:39:11.066Z,9.08
2023-05-17T02:41:39.401Z,9.12
2023-05-17T02:44:09.878Z,9.10
2023-05-17T02:46:38.729Z,9.03
2023-05-17T02:49:10.909Z,9.00
2023-05-17T02:51:39.297Z,8.94
2023-05-17T02:54:11.281Z,8.86
2023-05-17T02:56:39.635Z,8.86
2023-05-17T02:59:09.687Z,8.85
2023-05-17T03:01:38.133Z,8.83
2023-05-17T03:04:08.539Z,8.76
2023-05-17T03:06:38.587Z,8.73
2023-05-17T03:09:07.120Z,8.72
2023-05-17T03:11:35.672Z,8.73
2023-05-17T03:14:04.190Z,8.62
2023-05-17T03:16:32.590Z,8.60
2023-05-17T03:19:01.415Z,8.60
2023-05-17T03:21:31.672Z,8.67
2023-05-17T03:24:00.074Z,8.74
2023-05-17T03:26:28.538Z,8.71
2023-05-17T03:28:56.940Z,8.70
2023-05-17T03:31:25.554Z,8.66
2023-05-17T03:33:54.066Z,8.63
2023-05-17T03:36:22.575Z,8.66
2023-05-17T03:38:52.320Z,8.63
2023-05-17T03:41:21.838Z,8.53
2023-05-17T03:43:50.298Z,8.49
2023-05-17T03:46:18.728Z,8.52
2023-05-17T03:48:47.127Z,8.52
2023-05-17T03:51:15.634Z,8.57
2023-05-17T03:53:59.500Z,8.58
2023-05-17T03:56:28.085Z,8.61
2023-05-17T03:58:56.605Z,8.57
2023-05-17T04:01:25.027Z,8.62
2023-05-17T04:03:53.505Z,8.62
2023-05-17T04:06:21.857Z,8.70
2023-05-17T04:08:50.239Z,8.74
2023-05-17T04:11:23.862Z,8.79
2023-05-17T04:13:52.500Z,8.76
2023-05-17T04:16:20.983Z,8.78
2023-05-17T04:18:52.726Z,8.77
2023-05-17T04:21:21.475Z,8.69
2023-05-17T04:23:49.844Z,8.60
2023-05-17T04:26:20.511Z,8.57
2023-05-17T04:28:48.868Z,8.61
2023-05-17T04:31:18.843Z,8.70
2023-05-17T04:33:47.403Z,8.78
2023-05-17T04:36:15.899Z,8.73
2023-05-17T04:38:44.302Z,8.70
2023-05-17T04:41:12.759Z,8.60
2023-05-17T04:43:42.482Z,8.44
2023-05-17T04:46:12.591Z,8.39
2023-05-17T04:48:41.671Z,8.33
2023-05-17T04:51:10.354Z,8.26
2023-05-17T04:53:38.727Z,8.22
2023-05-17T04:56:07.961Z,8.22
2023-05-17T04:58:36.378Z,8.21
2023-05-17T05:01:06.777Z,8.24
2023-05-17T05:03:35.176Z,8.29
2023-05-17T05:06:04.177Z,8.29
2023-05-17T05:08:34.891Z,8.31
2023-05-17T05:11:03.417Z,8.39
2023-05-17T05:13:31.810Z,8.43
2023-05-17T05:16:00.266Z,8.47
2023-05-17T05:18:30.053Z,8.50
2023-05-17T05:20:59.301Z,8.47
2023-05-17T05:23:27.823Z,8.48
2023-05-17T05:25:56.207Z,8.49
2023-05-17T05:28:24.575Z,8.56
2023-05-17T05:30:58.552Z,8.56
2023-05-17T05:33:27.395Z,8.57
2023-05-17T05:35:57.240Z,8.53
2023-05-17T05:38:25.648Z,8.43
2023-05-17T05:40:54.036Z,8.40
2023-05-17T05:43:22.429Z,8.43
2023-05-17T05:45:51.016Z,8.46
2023-05-17T05:48:19.578Z,8.48
2023-05-17T05:50:48.024Z,8.48
2023-05-17T05:53:19.797Z,8.48
2023-05-17T05:55:49.478Z,8.52
2023-05-17T05:58:18.022Z,8.52
2023-05-17T06:00:46.413Z,8.52
2023-05-17T06:03:16.014Z,8.50
2023-05-17T06:05:44.514Z,8.49
2023-05-17T06:08:13.542Z,8.56
2023-05-17T06:10:43.358Z,8.53
2023-05-17T06:13:14.139Z,8.46
2023-05-17T06:15:42.632Z,8.46
2023-05-17T06:18:12.447Z,8.43
2023-05-17T06:20:40.964Z,8.48
2023-05-17T06:23:09.589Z,8.53
2023-05-17T06:25:47.880Z,8.45
2023-05-17T06:28:16.272Z,8.38
2023-05-17T06:30:44.758Z,8.39
2023-05-17T06:33:14.240Z,8.42
2023-05-17T06:35:55.641Z,8.47
2023-05-17T06:38:35.820Z,8.51
2023-05-17T06:41:05.756Z,8.51
2023-05-17T06:43:35.617Z,8.47
2023-05-17T06:46:05.576Z,8.47
2023-05-17T06:48:34.120Z,8.51
2023-05-17T06:51:02.702Z,8.45
2023-05-17T06:53:31.237Z,8.41
2023-05-17T06:55:59.779Z,8.40
2023-05-17T06:58:29.556Z,8.35
2023-05-17T07:00:58.507Z,8.35
2023-05-17T07:03:27.341Z,8.38
2023-05-17T07:05:55.790Z,8.43
2023-05-17T07:08:24.225Z,8.40
2023-05-17T07:10:53.150Z,8.44
2023-05-17T07:13:22.307Z,8.44
2023-05-17T07:15:52.163Z,8.47
2023-05-17T07:18:20.678Z,8.47
2023-05-17T07:20:49.396Z,8.50
2023-05-17T07:23:17.951Z,8.45
2023-05-17T07:25:46.526Z,8.48
2023-05-17T07:28:15.092Z,8.48
2023-05-17T07:30:43.594Z,8.51
2023-05-17T07:33:14.816Z,8.51
2023-05-17T07:35:43.235Z,8.46
2023-05-17T07:38:14.590Z,8.45
2023-05-17T07:40:43.001Z,8.48
2023-05-17T07:43:11.472Z,8.54
2023-05-17T07:45:40.105Z,8.62
2023-05-17T07:48:08.639Z,8.72
2023-05-17T07:50:38.580Z,8.72
2023-05-17T07:53:07.139Z,8.71
2023-05-17T07:55:35.552Z,8.70
2023-05-17T07:58:03.994Z,8.76
2023-05-17T08:00:33.071Z,8.80
2023-05-17T08:03:02.633Z,8.81
2023-05-17T08:05:31.560Z,8.87
2023-05-17T08:08:02.632Z,8.84
2023-05-17T08:10:30.972Z,8.81
2023-05-17T08:12:59.423Z,8.82
2023-05-17T08:15:28.014Z,8.89
2023-05-17T08:17:56.730Z,8.98
2023-05-17T08:20:25.233Z,9.03
2023-05-17T08:22:53.803Z,9.09
2023-05-17T08:25:23.951Z,9.14
2023-05-17T08:27:55.393Z,9.19
2023-05-17T08:30:28.795Z,9.24
2023-05-17T08:32:58.079Z,9.35
2023-05-17T08:35:28.878Z,9.31
2023-05-17T08:37:59.393Z,9.33
2023-05-17T08:40:29.892Z,9.40
2023-05-17T08:42:59.770Z,9.41
2023-05-17T08:45:29.325Z,9.45
2023-05-17T08:47:58.392Z,9.53
2023-05-17T08:50:30.347Z,9.55
2023-05-17T08:52:59.979Z,9.63
2023-05-17T08:55:33.226Z,9.73
2023-05-17T08:58:02.303Z,9.83
2023-05-17T09:00:33.519Z,9.89
2023-05-17T09:03:02.307Z,9.92
2023-05-17T09:05:30.978Z,9.96
2023-05-17T09:08:00.870Z,9.99
2023-05-17T09:10:31.720Z,9.97
2023-05-17T09:13:00.546Z,9.96
2023-05-17T09:15:30.548Z,9.94
2023-05-17T09:17:59.167Z,9.94
2023-05-17T09:20:34.183Z,9.98
2023-05-17T09:23:02.971Z,10.02
2023-05-17T09:25:32.859Z,9.94
2023-05-17T09:28:02.760Z,9.88
2023-05-17T09:30:33.195Z,9.85
2023-05-17T09:33:07.183Z,9.93
2023-05-17T09:35:37.499Z,9.88
2023-05-17T09:38:08.650Z,9.79
2023-05-17T09:40:41.435Z,9.74
2023-05-17T09:43:10.611Z,9.83
2023-05-17T09:45:41.458Z,9.99
2023-05-17T09:48:16.218Z,10.09
2023-05-17T09:50:46.284Z,10.16
2023-05-17T09:53:25.444Z,10.21
2023-05-17T09:55:57.145Z,10.27
2023-05-17T09:58:26.915Z,10.31
2023-05-17T10:00:59.680Z,10.31
2023-05-17T10:03:31.734Z,10.35
2023-05-17T10:06:03.773Z,10.35
2023-05-17T10:08:33.518Z,10.31
2023-05-17T10:11:06.662Z,10.25
2023-05-17T10:13:38.501Z,10.18
2023-05-17T10:16:07.806Z,10.20
2023-05-17T10:18:37.068Z,10.26
2023-05-17T10:21:06.607Z,10.35
2023-05-17T10:23:35.767Z,10.35
2023-05-17T10:26:06.629Z,10.33
2023-05-17T10:28:36.731Z,10.39
2023-05-17T10:31:05.910Z,10.44
2023-05-17T10:33:34.504Z,10.44
2023-05-17T10:36:03.623Z,10.51
2023-05-17T10:38:41.669Z,10.61
2023-05-17T10:41:15.965Z,10.64
2023-05-17T10:43:45.976Z,10.68
2023-05-17T10:46:18.075Z,10.72
2023-05-17T10:48:48.912Z,10.71
2023-05-17T10:51:24.594Z,10.76
2023-05-17T10:54:06.362Z,10.80
2023-05-17T10:56:36.566Z,10.82
2023-05-17T10:59:21.613Z,10.79
2023-05-17T11:01:55.325Z,10.80
2023-05-17T11:04:25.875Z,10.91
2023-05-17T11:06:57.251Z,10.94
2023-05-17T11:09:26.353Z,10.94
2023-05-17T11:12:09.845Z,10.98
2023-05-17T11:14:47.968Z,10.99
2023-05-17T11:17:18.899Z,11.02
2023-05-17T11:20:06.412Z,10.97
2023-05-17T11:22:40.193Z,10.84
2023-05-17T11:25:11.184Z,10.84
2023-05-17T11:27:46.361Z,10.91
2023-05-17T11:30:20.038Z,11.04
2023-05-17T11:32:50.514Z,11.18
2023-05-17T11:35:20.034Z,11.27
2023-05-17T11:37:49.358Z,11.39
2023-05-17T11:40:26.812Z,11.49
2023-05-17T11:43:20.223Z,11.56
2023-05-17T11:45:53.162Z,11.62
2023-05-17T11:48:23.891Z,11.66
2023-05-17T11:50:55.147Z,11.69
2023-05-17T11:53:25.543Z,11.71
2023-05-17T11:55:54.335Z,11.76
2023-05-17T11:58:26.269Z,11.83
2023-05-17T12:00:56.449Z,11.93
2023-05-17T12:03:26.368Z,12.00
2023-05-17T12:06:04.594Z,12.05
2023-05-17T12:08:34.465Z,12.10
2023-05-17T12:11:03.872Z,12.14
2023-05-17T12:13:35.817Z,12.26
2023-05-17T12:16:08.669Z,12.37
2023-05-17T12:18:38.648Z,12.45
2023-05-17T12:21:08.127Z,12.57
2023-05-17T12:23:41.141Z,12.76
2023-05-17T12:26:11.721Z,12.92
2023-05-17T12:28:44.595Z,13.00
2023-05-17T12:31:16.911Z,13.11
2023-05-17T12:33:48.157Z,13.20
2023-05-17T12:36:19.141Z,13.25
2023-05-17T12:38:48.450Z,13.34
2023-05-17T12:41:19.310Z,13.38
2023-05-17T12:43:49.677Z,13.41
2023-05-17T12:46:20.960Z,13.47
2023-05-17T12:48:51.882Z,13.57
2023-05-17T12:51:22.408Z,13.67
2023-05-17T12:53:53.044Z,13.79
2023-05-17T12:56:23.531Z,13.96
2023-05-17T12:59:12.853Z,14.17
2023-05-17T13:01:44.163Z,14.33
2023-05-17T13:04:13.776Z,14.38
2023-05-17T13:06:46.575Z,14.42
2023-05-17T13:09:16.602Z,14.51
2023-05-17T13:11:45.653Z,14.57
2023-05-17T13:14:17.267Z,14.62
2023-05-17T13:16:47.041Z,14.65
2023-05-17T13:19:17.584Z,14.75
2023-05-17T13:21:46.138Z,14.83
2023-05-17T13:24:15.341Z,14.88
2023-05-17T13:26:44.508Z,14.99
2023-05-17T13:29:13.007Z,15.02
2023-05-17T13:31:43.109Z,15.10
2023-05-17T13:34:11.638Z,15.15
2023-05-17T13:36:40.513Z,15.20
2023-05-17T13:39:09.012Z,15.20
2023-05-17T13:41:37.454Z,15.21
2023-05-17T13:44:06.176Z,15.17
2023-05-17T13:46:35.030Z,15.10
2023-05-17T13:49:07.296Z,14.98
2023-05-17T13:51:37.694Z,14.89
2023-05-17T13:54:06.328Z,14.74
2023-05-17T13:56:35.638Z,14.64
2023-05-17T13:59:04.068Z,14.56
2023-05-17T14:01:32.495Z,14.49
2023-05-17T14:04:01.644Z,14.39
2023-05-17T14:06:32.050Z,14.28
2023-05-17T14:09:00.913Z,14.17
2023-05-17T14:11:29.379Z,14.10
2023-05-17T14:13:58.166Z,13.99
2023-05-17T14:16:26.577Z,13.91
2023-05-17T14:18:55.168Z,13.87
2023-05-17T14:21:23.930Z,13.83
2023-05-17T14:23:53.707Z,13.80
2023-05-17T14:26:22.295Z,13.77
2023-05-17T14:28:50.891Z,13.75
2023-05-17T14:31:20.678Z,13.73
2023-05-17T14:33:49.132Z,13.72
2023-05-17T14:36:19.271Z,13.70
2023-05-17T14:38:47.666Z,13.71
2023-05-17T14:41:18.622Z,13.71
2023-05-17T14:43:47.107Z,13.71
2023-05-17T14:46:16.228Z,13.73
2023-05-17T14:48:44.789Z,13.75
2023-05-17T14:51:15.205Z,13.73
2023-05-17T14:53:43.575Z,13.71
2023-05-17T14:56:15.217Z,13.69
2023-05-17T14:58:45.002Z,13.66
2023-05-17T15:01:13.513Z,13.65
2023-05-17T15:03:42.313Z,13.64
2023-05-17T15:06:11.959Z,13.64
2023-05-17T15:08:40.677Z,13.63
2023-05-17T15:11:10.641Z,13.62
2023-05-17T15:13:39.163Z,13.61
2023-05-17T15:16:09.614Z,13.62
2023-05-17T15:18:38.175Z,13.58
2023-05-17T15:21:06.919Z,13.56
2023-05-17T15:23:35.306Z,13.52
2023-05-17T15:26:03.744Z,13.52
2023-05-17T15:28:32.144Z,13.50
2023-05-17T15:31:01.963Z,13.48
2023-05-17T15:33:32.453Z,13.48
2023-05-17T15:36:00.915Z,13.47
2023-05-17T15:38:29.444Z,13.45
2023-05-17T15:41:04.339Z,13.43
2023-05-17T15:43:34.491Z,13.39
2023-05-17T15:46:03.326Z,13.36
2023-05-17T15:48:34.280Z,13.34
2023-05-17T15:51:03.527Z,13.33
2023-05-17T15:53:32.132Z,13.32
2023-05-17T15:56:00.774Z,13.32
2023-05-17T15:58:32.903Z,13.30
2023-05-17T16:01:05.024Z,13.28
2023-05-17T16:03:35.380Z,13.28
2023-05-17T16:06:04.905Z,13.26
2023-05-17T16:08:33.421Z,13.24
2023-05-17T16:11:02.663Z,13.23
2023-05-17T16:13:31.711Z,13.19
2023-05-17T16:16:00.252Z,13.18
2023-05-17T16:18:30.002Z,13.14
2023-05-17T16:21:02.859Z,13.11
2023-05-17T16:23:31.459Z,13.09
2023-05-17T16:25:59.999Z,13.06
2023-05-17T16:28:32.403Z,13.01
2023-05-17T16:31:00.821Z,12.99
2023-05-17T16:33:29.316Z,12.96
2023-05-17T16:36:00.246Z,12.94
2023-05-17T16:38:28.613Z,12.93
2023-05-17T16:40:57.356Z,12.94
2023-05-17T16:43:26.404Z,12.94
2023-05-17T16:45:54.812Z,12.93
2023-05-17T16:48:23.325Z,12.89
2023-05-17T16:50:51.959Z,12.84
2023-05-17T16:53:23.048Z,12.80
2023-05-17T16:55:51.519Z,12.76
2023-05-17T16:58:21.787Z,12.75
2023-05-17T17:00:50.471Z,12.72
2023-05-17T17:03:19.918Z,12.67
2023-05-17T17:05:48.711Z,12.63
2023-05-17T17:08:17.166Z,12.59
2023-05-17T17:10:46.978Z,12.60
2023-05-17T17:13:25.504Z,12.58
2023-05-17T17:15:54.710Z,12.55
2023-05-17T17:18:23.223Z,12.52
2023-05-17T17:20:52.114Z,12.50
2023-05-17T17:23:21.906Z,12.48
2023-05-17T17:25:51.660Z,12.44
2023-05-17T17:28:22.071Z,12.41
2023-05-17T17:30:50.835Z,12.41
2023-05-17T17:33:20.633Z,12.38
2023-05-17T17:35:58.376Z,12.33
2023-05-17T17:38:26.931Z,12.29
2023-05-17T17:40:56.724Z,12.25
2023-05-17T17:43:25.128Z,12.19
2023-05-17T17:45:53.563Z,12.15
2023-05-17T17:48:21.938Z,12.12
2023-05-17T17:50:50.376Z,12.08
2023-05-17T17:53:19.884Z,12.06
2023-05-17T17:55:52.259Z,12.03
2023-05-17T17:58:22.680Z,12.01
2023-05-17T18:00:51.117Z,11.99
2023-05-17T18:03:20.741Z,11.99
2023-05-17T18:05:49.289Z,11.99
2023-05-17T18:08:24.971Z,11.97
2023-05-17T18:10:53.407Z,11.97
2023-05-17T18:13:24.759Z,11.95
2023-05-17T18:15:53.235Z,11.92
2023-05-17T18:18:23.303Z,11.89
2023-05-17T18:20:51.776Z,11.82
2023-05-17T18:23:21.763Z,11.79
2023-05-17T18:25:50.753Z,11.74
2023-05-17T18:28:29.938Z,11.70
2023-05-17T18:31:03.519Z,11.68
2023-05-17T18:33:34.004Z,11.66
2023-05-17T18:36:02.524Z,11.62
2023-05-17T18:38:31.033Z,11.60
2023-05-17T18:40:59.471Z,11.61
2023-05-17T18:43:29.194Z,11.60
2023-05-17T18:45:57.640Z,11.57
2023-05-17T18:48:28.481Z,11.56
2023-05-17T18:50:57.522Z,11.55
2023-05-17T18:53:26.438Z,11.52
2023-05-17T18:55:54.879Z,11.49
2023-05-17T18:58:23.336Z,11.49
2023-05-17T19:00:51.807Z,11.46
2023-05-17T19:03:22.684Z,11.45
2023-05-17T19:05:52.449Z,11.45
2023-05-17T19:08:21.889Z,11.47
2023-05-17T19:10:50.518Z,11.48
2023-05-17T19:13:19.136Z,11.50
2023-05-17T19:15:47.717Z,11.52
2023-05-17T19:18:17.878Z,11.52
2023-05-17T19:20:46.442Z,11.53
2023-05-17T19:23:16.241Z,11.54
2023-05-17T19:25:44.729Z,11.53
2023-05-17T19:28:13.232Z,11.50
2023-05-17T19:30:41.723Z,11.47
2023-05-17T19:33:11.941Z,11.45
2023-05-17T19:35:41.006Z,11.42
2023-05-17T19:38:10.508Z,11.41
2023-05-17T19:40:40.869Z,11.40
2023-05-17T19:43:09.337Z,11.37
2023-05-17T19:45:37.796Z,11.32
2023-05-17T19:48:08.144Z,11.29
2023-05-17T19:50:36.816Z,11.23
2023-05-17T19:53:05.708Z,11.21
2023-05-17T19:55:34.557Z,11.19
2023-05-17T19:58:04.478Z,11.20
2023-05-17T20:00:33.231Z,11.19
2023-05-17T20:03:01.761Z,11.19
2023-05-17T20:05:30.770Z,11.19
2023-05-17T20:07:59.259Z,11.17
2023-05-17T20:10:27.867Z,11.17
2023-05-17T20:12:56.414Z,11.17
2023-05-17T20:15:26.480Z,11.15
2023-05-17T20:17:55.304Z,11.16
2023-05-17T20:20:24.003Z,11.17
2023-05-17T20:22:52.558Z,11.16
2023-05-17T20:25:22.004Z,11.13
2023-05-17T20:27:50.429Z,11.12
2023-05-17T20:30:19.029Z,11.11
2023-05-17T20:32:48.864Z,11.10
2023-05-17T20:35:17.380Z,11.07
2023-05-17T20:37:45.848Z,11.04
2023-05-17T20:40:14.552Z,11.03
2023-05-17T20:42:43.072Z,11.02
2023-05-17T20:45:13.897Z,11.03
2023-05-17T20:47:43.615Z,11.05
2023-05-17T20:50:14.269Z,11.07
2023-05-17T20:52:42.688Z,11.08
2023-05-17T20:55:11.807Z,11.08
2023-05-17T20:57:40.236Z,11.08
2023-05-17T21:00:11.871Z,11.09
2023-05-17T21:02:40.715Z,11.10
2023-05-17T21:05:10.854Z,11.09
2023-05-17T21:07:40.763Z,11.06
2023-05-17T21:10:10.499Z,11.06
2023-05-17T21:12:38.884Z,11.05
2023-05-17T21:15:16.938Z,11.04
2023-05-17T21:17:45.924Z,11.04
2023-05-17T21:20:14.957Z,11.03
2023-05-17T21:22:45.880Z,11.01
2023-05-17T21:25:14.438Z,11.01
2023-05-17T21:27:42.859Z,10.98
2023-05-17T21:30:12.005Z,10.97
2023-05-17T21:32:42.268Z,10.97
2023-05-17T21:35:10.897Z,10.98
2023-05-17T21:37:40.120Z,10.98
2023-05-17T21:40:11.270Z,10.97
2023-05-17T21:42:43.418Z,10.92
2023-05-17T21:45:12.986Z,10.91
2023-05-17T21:47:41.580Z,10.88
2023-05-17T21:50:11.747Z,10.87
2023-05-17T21:52:46.463Z,10.86
2023-05-17T21:55:16.198Z,10.87
2023-05-17T21:57:44.737Z,10.89
2023-05-17T22:00:15.479Z,10.93
2023-05-17T22:02:45.419Z,10.95
2023-05-17T22:05:14.625Z,10.92
2023-05-17T22:07:43.039Z,10.88
2023-05-17T22:10:12.651Z,10.86
2023-05-17T22:12:42.449Z,10.82
2023-05-17T22:15:11.520Z,10.80
2023-05-17T22:17:51.301Z,10.80
2023-05-17T22:20:23.862Z,10.78
2023-05-17T22:22:52.492Z,10.71
2023-05-17T22:25:21.133Z,10.68
2023-05-17T22:27:51.203Z,10.64
2023-05-17T22:30:19.749Z,10.64
2023-05-17T22:32:48.287Z,10.62
2023-05-17T22:35:16.962Z,10.64
2023-05-17T22:37:45.567Z,10.67
2023-05-17T22:40:14.434Z,10.69
2023-05-17T22:42:43.201Z,10.72
2023-05-17T22:45:14.358Z,10.73
2023-05-17T22:47:52.808Z,10.73
2023-05-17T22:50:24.511Z,10.73
2023-05-17T22:52:53.260Z,10.74
2023-05-17T22:55:21.731Z,10.75
2023-05-17T22:57:54.594Z,10.72
2023-05-17T23:00:26.404Z,10.69
2023-05-17T23:02:55.008Z,10.68
2023-05-17T23:05:25.764Z,10.72
2023-05-17T23:07:54.174Z,10.71
2023-05-17T23:10:23.123Z,10.74
2023-05-17T23:12:52.435Z,10.74
2023-05-17T23:15:21.908Z,10.71
2023-05-17T23:17:51.819Z,10.67
2023-05-17T23:20:20.459Z,10.67
2023-05-17T23:22:49.261Z,10.71
2023-05-17T23:25:17.855Z,10.73
2023-05-17T23:27:48.565Z,10.72
2023-05-17T23:30:18.299Z,10.72
2023-05-17T23:32:48.796Z,10.71
2023-05-17T23:35:18.792Z,10.69
2023-05-17T23:37:47.192Z,10.70
2023-05-17T23:40:16.634Z,10.71
2023-05-17T23:42:45.101Z,10.70
2023-05-17T23:45:14.711Z,10.65
2023-05-17T23:47:43.215Z,10.63
2023-05-17T23:50:12.357Z,10.62
2023-05-17T23:52:43.542Z,10.62
2023-05-17T23:55:12.177Z,10.62
2023-05-17T23:57:42.412Z,10.59
